Twin Rocks, Oregon
Current Conditions -  °F | °C
As of 7:55 AM on Thursday 29 Jan 2015 (Local Time) from KHIO Reporting Station
Haze Haze  
Wind Chill: 39°   Ceiling: Unl
Heat Index: 42°   Visibility: 4mi
Dew Point: 42°   Wind: 5mph
Humidity: 100%   Direction: 40°NE
Pressure: 30.31"   Gusts: NA
Location:  45.6132°N, 123.654°W
Report Text: KHIO 291555Z 04004KT 4SM BR CLR 06/06 A3031 RMK AO2 T00560056
Loading
Personal Weather Stations






























Interactive Weather Map New forecast layout! Learn more

10-Day Weather Forecast

Advertisements
Track Severe Weather on mobile